Time;durP1;ratioP1;P1;durP2;ratioP2;P2;SDS_P1;SDS_P2;PMS_P1;PMS_P2;Temp;Humidity;BMP_temperature;BMP_pressure;BME280_temperature;BME280_humidity;BME280_pressure;Samples;Min_cycle;Max_cycle;Signal;HPM_P1;HPM_P2
2022/09/02 00:02:21;;;;;;;;;;;;;;;15.74;57.37;102104.84;5060416;28;19949;-50
2022/09/02 00:04:46;;;;;;;;;;;;;;;15.72;57.52;102106.72;5059953;28;20380;-51
2022/09/02 00:07:12;;;;;;;;;;;;;;;15.69;57.53;102106.91;5060987;28;20394;-52
2022/09/02 00:09:39;;;;;;;;;;;;;;;15.68;57.65;102105.19;5058169;28;20366;-51
2022/09/02 00:12:05;;;;;;;;;;;;;;;15.67;57.66;102103.47;5059765;28;19928;-51
2022/09/02 00:14:32;;;;;;;;;;;;;;;15.67;57.79;102100.81;5061811;28;20084;-51
2022/09/02 00:16:59;;;;;;;;;;;;;;;15.68;57.73;102097.22;5063457;28;19935;-51
2022/09/02 00:19:26;;;;;;;;;;;;;;;15.68;57.74;102094.59;5058134;28;19920;-51
2022/09/02 00:21:52;;;;;;;;;;;;;;;15.68;57.75;102095.44;5059678;28;19920;-50
2022/09/02 00:24:18;;;;;;;;;;;;;;;15.71;57.71;102097.06;5058928;28;19920;-51
2022/09/02 00:26:44;;;;;;;;;;;;;;;15.68;57.94;102092.81;5061868;28;19933;-51
2022/09/02 00:29:09;;;;;;;;;;;;;;;15.68;57.86;102094.59;5060937;28;19920;-51
2022/09/02 00:31:35;;;;;;;;;;;;;;;15.67;57.76;102092.88;5063456;28;19932;-51
2022/09/02 00:34:01;;;;;;;;;;;;;;;15.66;57.87;102097.34;5060017;28;19973;-52
2022/09/02 00:36:26;;;;;;;;;;;;;;;15.65;57.90;102089.47;5059007;28;20269;-52
2022/09/02 00:38:52;;;;;;;;;;;;;;;15.65;57.93;102094.78;5061259;28;19924;-51
2022/09/02 00:41:20;;;;;;;;;;;;;;;15.62;57.94;102100.25;5063136;28;19927;-51
2022/09/02 00:43:45;;;;;;;;;;;;;;;15.60;57.95;102091.53;5059021;28;19939;-51
2022/09/02 00:46:11;;;;;;;;;;;;;;;15.61;58.02;102093.25;5059158;28;20291;-51
2022/09/02 00:48:39;;;;;;;;;;;;;;;15.59;57.99;102095.97;5057580;28;19929;-52
2022/09/02 00:51:05;;;;;;;;;;;;;;;15.61;57.92;102090.59;5059206;28;20370;-51
2022/09/02 00:53:31;;;;;;;;;;;;;;;15.58;57.91;102099.56;5061265;28;19973;-53
2022/09/02 00:55:57;;;;;;;;;;;;;;;15.57;57.99;102097.00;5056501;28;19925;-51
2022/09/02 00:58:24;;;;;;;;;;;;;;;15.53;58.03;102096.34;5056438;28;19924;-51
2022/09/02 01:00:51;;;;;;;;;;;;;;;15.46;58.05;102090.53;5058103;28;19932;-51
2022/09/02 01:03:19;;;;;;;;;;;;;;;15.38;58.22;102103.34;5060059;28;19916;-50
2022/09/02 01:05:47;;;;;;;;;;;;;;;15.29;58.34;102099.41;5059456;28;19986;-52
2022/09/02 01:08:14;;;;;;;;;;;;;;;15.18;58.50;102102.69;5056212;28;19928;-50
2022/09/02 01:10:40;;;;;;;;;;;;;;;15.11;58.63;102093.34;5057954;28;19924;-50
2022/09/02 01:13:07;;;;;;;;;;;;;;;15.07;58.69;102095.34;5056023;28;19924;-50
2022/09/02 01:15:36;;;;;;;;;;;;;;;15.00;58.74;102088.66;5058620;28;19935;-51
2022/09/02 01:18:01;;;;;;;;;;;;;;;14.97;59.06;102093.25;5060010;28;20890;-51
2022/09/02 01:20:27;;;;;;;;;;;;;;;14.96;59.01;102091.56;5058919;28;19929;-51
2022/09/02 01:22:53;;;;;;;;;;;;;;;14.97;58.98;102090.63;5059283;28;19920;-51
2022/09/02 01:25:21;;;;;;;;;;;;;;;14.96;58.89;102097.72;5058455;28;19927;-50
2022/09/02 01:27:47;;;;;;;;;;;;;;;14.89;59.00;102086.59;5058915;28;20304;-51
2022/09/02 01:30:15;;;;;;;;;;;;;;;14.86;59.15;102092.06;5057849;28;19932;-50
2022/09/02 01:32:41;;;;;;;;;;;;;;;14.87;59.14;102079.66;5055756;28;20062;-51
2022/09/02 01:35:06;;;;;;;;;;;;;;;14.89;59.12;102086.59;5060967;28;20061;-50
2022/09/02 01:37:33;;;;;;;;;;;;;;;14.92;59.11;102090.88;5061955;28;20280;-51
2022/09/02 01:39:58;;;;;;;;;;;;;;;14.91;58.91;102087.34;5058908;28;20422;-51
2022/09/02 01:42:24;;;;;;;;;;;;;;;14.90;59.06;102085.63;5059481;28;19920;-51
2022/09/02 01:44:50;;;;;;;;;;;;;;;14.87;58.96;102085.84;5058690;28;20050;-52
2022/09/02 01:47:17;;;;;;;;;;;;;;;14.81;59.09;102083.50;5056772;28;19932;-51
2022/09/02 01:49:42;;;;;;;;;;;;;;;14.71;59.13;102082.31;5053633;28;21593;-51
2022/09/02 01:52:08;;;;;;;;;;;;;;;14.62;59.30;102087.09;5054259;28;19921;-51
2022/09/02 01:54:34;;;;;;;;;;;;;;;14.55;59.48;102088.38;5052075;28;20079;-50
2022/09/02 01:57:00;;;;;;;;;;;;;;;14.52;59.51;102075.31;5058212;28;19921;-52
2022/09/02 01:59:25;;;;;;;;;;;;;;;14.52;59.62;102071.81;5058493;28;19932;-50
2022/09/02 02:01:50;;;;;;;;;;;;;;;14.52;59.56;102072.66;5059354;28;20464;-51
2022/09/02 02:04:16;;;;;;;;;;;;;;;14.51;59.57;102068.28;5060460;28;20079;-51
2022/09/02 02:06:43;;;;;;;;;;;;;;;14.51;59.58;102063.00;5056909;28;20296;-51
2022/09/02 02:09:09;;;;;;;;;;;;;;;14.50;59.54;102073.69;5056301;28;20157;-51
2022/09/02 02:11:34;;;;;;;;;;;;;;;14.48;59.68;102061.38;5057954;28;19978;-51
2022/09/02 02:13:59;;;;;;;;;;;;;;;14.45;59.81;102072.13;5053378;28;20026;-51
2022/09/02 02:16:25;;;;;;;;;;;;;;;14.45;59.85;102071.25;5061540;28;19967;-51
2022/09/02 02:18:50;;;;;;;;;;;;;;;14.46;59.72;102072.97;5058977;28;19912;-51
2022/09/02 02:21:15;;;;;;;;;;;;;;;14.45;59.85;102073.91;5060240;28;19920;-51
2022/09/02 02:23:41;;;;;;;;;;;;;;;14.44;59.91;102081.00;5057037;28;19924;-51
2022/09/02 02:26:07;;;;;;;;;;;;;;;14.44;59.85;102080.16;5053233;28;19925;-50
2022/09/02 02:28:32;;;;;;;;;;;;;;;14.44;59.94;102075.72;5052471;28;20208;-53
2022/09/02 02:30:59;;;;;;;;;;;;;;;14.44;59.90;102081.00;5056217;28;19923;-50
2022/09/02 02:33:24;;;;;;;;;;;;;;;14.45;59.93;102081.84;5056166;28;20020;-50
2022/09/02 02:35:50;;;;;;;;;;;;;;;14.44;59.83;102081.00;5057878;28;20015;-52
2022/09/02 02:38:16;;;;;;;;;;;;;;;14.46;59.84;102078.25;5056408;28;19916;-51
2022/09/02 02:40:41;;;;;;;;;;;;;;;14.46;59.88;102083.56;5061326;28;19924;-51
2022/09/02 02:43:06;;;;;;;;;;;;;;;14.45;59.95;102082.72;5055692;28;19921;-52
2022/09/02 02:45:32;;;;;;;;;;;;;;;14.42;60.07;102082.03;5057375;28;19927;-52
2022/09/02 02:47:57;;;;;;;;;;;;;;;14.38;60.03;102086.59;5060897;28;19931;-50
2022/09/02 02:50:24;;;;;;;;;;;;;;;14.33;60.03;102086.00;5057401;28;20376;-50
2022/09/02 02:52:49;;;;;;;;;;;;;;;14.29;60.17;102082.66;5055052;28;19920;-51
2022/09/02 02:55:15;;;;;;;;;;;;;;;14.24;60.21;102082.06;5056304;28;19921;-50
2022/09/02 02:57:41;;;;;;;;;;;;;;;14.18;60.40;102079.72;5056709;28;19929;-51
2022/09/02 03:00:07;;;;;;;;;;;;;;;14.14;60.60;102080.81;5059450;28;19913;-52
2022/09/02 03:02:33;;;;;;;;;;;;;;;14.13;60.47;102077.31;5055529;28;19931;-50
2022/09/02 03:04:58;;;;;;;;;;;;;;;14.15;60.50;102074.56;5058536;28;20287;-51
2022/09/02 03:07:23;;;;;;;;;;;;;;;14.17;60.28;102073.56;5056376;28;19939;-52
2022/09/02 03:09:49;;;;;;;;;;;;;;;14.18;60.44;102069.13;5057577;28;19965;-52
2022/09/02 03:12:15;;;;;;;;;;;;;;;14.17;60.37;102067.41;5055364;28;19965;-52
2022/09/02 03:14:41;;;;;;;;;;;;;;;14.16;60.38;102060.41;5056538;28;19920;-52
2022/09/02 03:17:06;;;;;;;;;;;;;;;14.15;60.44;102054.25;5058146;28;19927;-52
2022/09/02 03:19:31;;;;;;;;;;;;;;;14.16;60.32;102057.75;5057451;28;20441;-51
2022/09/02 03:21:57;;;;;;;;;;;;;;;14.17;60.36;102064.75;5057569;28;19925;-52
2022/09/02 03:24:22;;;;;;;;;;;;;;;14.15;60.31;102053.41;5057730;28;20179;-52
2022/09/02 03:26:47;;;;;;;;;;;;;;;14.14;60.34;102059.66;5056702;28;19942;-51
2022/09/02 03:29:13;;;;;;;;;;;;;;;14.16;60.39;102060.41;5061011;28;20445;-50
2022/09/02 03:31:38;;;;;;;;;;;;;;;14.16;60.42;102055.09;5046265;28;20439;-52
2022/09/02 03:34:04;;;;;;;;;;;;;;;14.17;60.27;102056.81;5060726;28;19924;-51
2022/09/02 03:36:35;;;;;;;;;;;;;;;14.17;60.38;102059.47;5064501;28;19933;-52
2022/09/02 03:39:01;;;;;;;;;;;;;;;14.15;60.39;102054.25;5060391;28;20007;-51
2022/09/02 03:41:26;;;;;;;;;;;;;;;14.14;60.35;102057.00;5061414;28;20355;-50
2022/09/02 03:43:51;;;;;;;;;;;;;;;14.13;60.55;102060.59;5057384;28;19934;-53
2022/09/02 03:46:17;;;;;;;;;;;;;;;14.12;60.54;102064.16;5060600;28;19931;-51
2022/09/02 03:48:43;;;;;;;;;;;;;;;14.10;60.52;102061.56;5058121;28;19929;-50
2022/09/02 03:51:09;;;;;;;;;;;;;;;14.11;60.41;102057.16;5063458;28;19927;-52
2022/09/02 03:53:34;;;;;;;;;;;;;;;14.11;60.41;102054.50;5057239;28;20023;-51
2022/09/02 03:56:03;;;;;;;;;;;;;;;14.10;60.52;102051.00;5059155;28;19943;-50
2022/09/02 03:58:29;;;;;;;;;;;;;;;14.10;60.29;102055.44;5061049;28;19932;-52
2022/09/02 04:00:54;;;;;;;;;;;;;;;14.09;60.46;102053.72;5058802;28;19923;-51
2022/09/02 04:03:19;;;;;;;;;;;;;;;14.09;60.42;102057.22;5062515;28;19929;-51
2022/09/02 04:05:46;;;;;;;;;;;;;;;14.09;60.39;102059.88;5062649;28;19929;-50
2022/09/02 04:08:11;;;;;;;;;;;;;;;14.07;60.59;102055.59;5060951;28;19931;-51
2022/09/02 04:10:37;;;;;;;;;;;;;;;14.06;60.38;102057.41;5064177;28;19920;-52
2022/09/02 04:13:02;;;;;;;;;;;;;;;14.05;60.58;102060.09;5061667;28;20070;-50
2022/09/02 04:15:27;;;;;;;;;;;;;;;14.03;60.64;102068.97;5061462;28;19928;-51
2022/09/02 04:17:53;;;;;;;;;;;;;;;14.02;60.57;102064.63;5061694;28;20351;-51
2022/09/02 04:20:24;;;;;;;;;;;;;;;14.00;60.68;102063.84;5043453;28;19924;-51
2022/09/02 04:22:49;;;;;;;;;;;;;;;14.01;60.59;102070.00;5058734;28;20045;-50
2022/09/02 04:25:15;;;;;;;;;;;;;;;14.00;60.56;102069.13;5053486;28;20533;-50
2022/09/02 04:27:40;;;;;;;;;;;;;;;14.01;60.52;102068.19;5054909;28;20058;-50
2022/09/02 04:30:07;;;;;;;;;;;;;;;13.98;60.70;102068.38;5058749;28;19921;-52
2022/09/02 04:32:32;;;;;;;;;;;;;;;13.99;60.73;102063.94;5055783;28;19928;-50
2022/09/02 04:34:58;;;;;;;;;;;;;;;13.98;60.56;102070.16;5061694;28;19928;-51
2022/09/02 04:37:23;;;;;;;;;;;;;;;13.99;60.52;102069.22;5062576;28;20549;-51
2022/09/02 04:39:49;;;;;;;;;;;;;;;13.97;60.55;102061.38;5059349;28;19917;-50
2022/09/02 04:42:14;;;;;;;;;;;;;;;13.98;60.80;102063.09;5050371;28;20395;-50
2022/09/02 04:44:39;;;;;;;;;;;;;;;13.97;60.50;102066.66;5058104;28;19932;-50
2022/09/02 04:47:05;;;;;;;;;;;;;;;13.98;60.58;102056.91;5061757;28;19929;-51
2022/09/02 04:49:32;;;;;;;;;;;;;;;13.99;60.71;102061.28;5060922;28;20160;-50
2022/09/02 04:51:58;;;;;;;;;;;;;;;13.98;60.49;102068.38;5058925;28;19924;-50
2022/09/02 04:54:23;;;;;;;;;;;;;;;13.97;60.62;102061.38;5063254;28;19969;-50
2022/09/02 04:56:48;;;;;;;;;;;;;;;13.96;60.56;102062.31;5052162;28;19954;-50
2022/09/02 04:59:14;;;;;;;;;;;;;;;13.94;60.62;102061.53;5058821;28;19977;-51
2022/09/02 05:01:40;;;;;;;;;;;;;;;13.95;60.78;102063.25;5060559;28;20019;-52
2022/09/02 05:04:08;;;;;;;;;;;;;;;13.96;60.67;102059.66;5045646;28;19970;-51
2022/09/02 05:06:34;;;;;;;;;;;;;;;13.99;60.65;102062.13;5063603;28;21329;-53
2022/09/02 05:09:00;;;;;;;;;;;;;;;14.01;60.75;102073.50;5062727;28;20457;-51
2022/09/02 05:11:30;;;;;;;;;;;;;;;14.01;60.62;102062.91;5057775;28;19974;-51
2022/09/02 05:13:57;;;;;;;;;;;;;;;14.02;60.82;102064.63;5062977;28;19920;-50
2022/09/02 05:16:24;;;;;;;;;;;;;;;14.05;60.65;102065.41;5062664;28;19929;-51
2022/09/02 05:18:50;;;;;;;;;;;;;;;14.06;60.85;102062.69;5061125;28;19920;-50
2022/09/02 05:21:16;;;;;;;;;;;;;;;14.08;60.71;102067.91;5061282;28;19925;-50
2022/09/02 05:23:41;;;;;;;;;;;;;;;14.10;60.90;102066.88;5057123;28;19935;-51
2022/09/02 05:26:08;;;;;;;;;;;;;;;14.12;60.82;102072.09;5053899;28;19924;-50
2022/09/02 05:28:33;;;;;;;;;;;;;;;14.14;60.80;102062.31;5058903;28;19924;-51
2022/09/02 05:31:12;;;;;;;;;;;;;;;14.15;60.78;102066.63;5063717;28;19917;-50
2022/09/02 05:33:39;;;;;;;;;;;;;;;14.18;60.80;102063.81;5059521;28;19924;-50
2022/09/02 05:36:11;;;;;;;;;;;;;;;14.20;60.82;102072.56;5054712;28;20319;-50
2022/09/02 05:38:37;;;;;;;;;;;;;;;14.25;61.02;102069.66;5053439;28;19917;-50
2022/09/02 05:41:06;;;;;;;;;;;;;;;14.28;60.78;102070.38;5058915;28;19924;-50
2022/09/02 05:43:34;;;;;;;;;;;;;;;14.32;60.95;102071.91;5058651;28;19921;-53
2022/09/02 05:46:02;;;;;;;;;;;;;;;14.36;60.89;102066.47;5056652;28;19921;-50
2022/09/02 05:51:11;;;;;;;;;;;;;;;14.44;60.68;102074.88;5056805;28;19931;-50
2022/09/02 05:53:37;;;;;;;;;;;;;;;14.47;60.78;102064.97;5059380;28;19928;-50
2022/09/02 05:56:03;;;;;;;;;;;;;;;14.50;60.64;102077.16;5060655;28;19974;-52
2022/09/02 05:58:30;;;;;;;;;;;;;;;14.53;60.75;102071.72;5061094;28;19923;-51
2022/09/02 06:00:55;;;;;;;;;;;;;;;14.57;60.78;102069.75;5063287;28;20223;-51
2022/09/02 06:03:20;;;;;;;;;;;;;;;14.62;60.68;102075.66;5061127;28;19928;-52
2022/09/02 06:05:53;;;;;;;;;;;;;;;14.67;60.76;102070.13;5061182;28;19963;-50
2022/09/02 06:08:19;;;;;;;;;;;;;;;14.72;60.67;102068.13;5059921;28;19924;-51
2022/09/02 06:10:44;;;;;;;;;;;;;;;14.77;60.63;102076.66;5055640;28;20453;-52
2022/09/02 06:13:10;;;;;;;;;;;;;;;14.82;60.67;102074.63;5061203;28;19925;-51
2022/09/02 06:15:40;;;;;;;;;;;;;;;14.85;60.77;102066.50;5062896;28;19931;-53
2022/09/02 06:18:06;;;;;;;;;;;;;;;14.90;60.58;102077.69;5041834;28;19936;-50
2022/09/02 06:20:31;;;;;;;;;;;;;;;14.93;60.60;102072.22;5060388;28;20388;-51
2022/09/02 06:22:56;;;;;;;;;;;;;;;14.98;60.62;102069.31;5062255;28;20315;-51
2022/09/02 06:25:22;;;;;;;;;;;;;;;15.02;60.58;102075.31;5062275;28;19971;-52
2022/09/02 06:27:47;;;;;;;;;;;;;;;15.07;60.61;102075.91;5061011;28;19956;-52
2022/09/02 06:30:12;;;;;;;;;;;;;;;15.11;60.54;102081.91;5061815;28;19921;-51
2022/09/02 06:32:38;;;;;;;;;;;;;;;15.15;60.54;102078.13;5061030;28;19932;-50
2022/09/02 06:35:03;;;;;;;;;;;;;;;15.17;60.55;102082.44;5061604;28;20443;-50
2022/09/02 06:37:29;;;;;;;;;;;;;;;15.21;60.65;102080.44;5043108;28;20023;-52
2022/09/02 06:39:54;;;;;;;;;;;;;;;15.24;60.49;102081.13;5059974;28;19924;-51
2022/09/02 06:42:19;;;;;;;;;;;;;;;15.28;60.56;102084.44;5059524;28;20005;-51
2022/09/02 06:44:45;;;;;;;;;;;;;;;15.31;60.62;102080.78;5027313;28;19924;-51
2022/09/02 06:47:10;;;;;;;;;;;;;;;15.35;60.65;102082.34;5059351;28;20264;-53
2022/09/02 06:49:35;;;;;;;;;;;;;;;15.38;60.58;102084.78;5057922;28;19924;-53
2022/09/02 06:52:01;;;;;;;;;;;;;;;15.42;60.51;102088.16;5058841;28;19974;-51
2022/09/02 06:54:26;;;;;;;;;;;;;;;15.46;60.45;102079.91;5061271;28;20026;-52
2022/09/02 06:56:51;;;;;;;;;;;;;;;15.48;60.53;102082.47;5061025;28;19927;-51
2022/09/02 06:59:18;;;;;;;;;;;;;;;15.52;60.44;102076.06;5060832;28;19943;-53
2022/09/02 07:01:44;;;;;;;;;;;;;;;15.55;60.44;102084.69;5059672;28;20015;-51
2022/09/02 07:06:54;;;;;;;;;;;;;;;15.62;60.49;102084.34;5064830;28;19943;-52
2022/09/02 07:09:21;;;;;;;;;;;;;;;15.66;60.45;102088.50;5063152;28;20304;-52
2022/09/02 07:11:47;;;;;;;;;;;;;;;15.68;60.54;102076.88;5056477;28;19920;-51
2022/09/02 07:14:16;;;;;;;;;;;;;;;15.73;60.32;102087.22;5061134;28;19977;-52
2022/09/02 07:16:45;;;;;;;;;;;;;;;15.76;60.33;102076.44;5063640;28;20280;-51
2022/09/02 07:19:11;;;;;;;;;;;;;;;15.79;60.35;102073.59;5064514;28;20383;-51
2022/09/02 07:21:36;;;;;;;;;;;;;;;15.85;60.34;102083.03;5061036;28;19927;-52
2022/09/02 07:24:02;;;;;;;;;;;;;;;15.90;60.22;102077.44;5061331;28;20015;-51
2022/09/02 07:26:27;;;;;;;;;;;;;;;15.94;60.27;102076.31;5062725;28;20343;-52
2022/09/02 07:28:53;;;;;;;;;;;;;;;15.98;60.26;102077.84;5063055;28;19924;-52
2022/09/02 07:31:19;;;;;;;;;;;;;;;16.02;60.12;102071.41;5061210;28;19981;-52
2022/09/02 07:33:44;;;;;;;;;;;;;;;16.06;60.00;102072.06;5061034;28;19929;-52
2022/09/02 07:36:10;;;;;;;;;;;;;;;16.09;59.94;102072.75;5063459;28;19920;-52
2022/09/02 07:38:36;;;;;;;;;;;;;;;16.13;59.95;102076.91;5062469;28;19925;-52
2022/09/02 07:41:02;;;;;;;;;;;;;;;16.18;59.90;102081.09;5061786;28;19917;-52
2022/09/02 07:43:28;;;;;;;;;;;;;;;16.23;59.88;102084.34;5063266;28;19920;-52
2022/09/02 07:45:54;;;;;;;;;;;;;;;16.28;59.69;102076.94;5061079;28;19952;-51
2022/09/02 07:48:21;;;;;;;;;;;;;;;16.32;59.71;102082.94;5059810;28;19963;-51
2022/09/02 07:50:46;;;;;;;;;;;;;;;16.35;59.75;102082.72;5065000;28;19956;-51
2022/09/02 07:53:12;;;;;;;;;;;;;;;16.38;59.67;102078.09;5063299;28;19953;-51
2022/09/02 07:55:39;;;;;;;;;;;;;;;16.43;59.68;102075.16;5060299;28;19931;-52
2022/09/02 07:58:05;;;;;;;;;;;;;;;16.48;59.64;102078.41;5060776;28;20022;-51
2022/09/02 08:00:30;;;;;;;;;;;;;;;16.51;59.52;102072.88;5060050;28;19929;-51
2022/09/02 08:02:56;;;;;;;;;;;;;;;16.56;59.48;102075.25;5064493;28;19948;-52
2022/09/02 08:05:22;;;;;;;;;;;;;;;16.61;59.35;102073.16;5062265;28;19925;-52
2022/09/02 08:07:47;;;;;;;;;;;;;;;16.68;59.22;102077.16;5063070;28;19920;-52
2022/09/02 08:10:14;;;;;;;;;;;;;;;16.73;58.82;102072.38;5060637;28;19927;-52
2022/09/02 08:12:40;;;;;;;;;;;;;;;16.77;58.75;102068.59;5059300;28;19924;-52
2022/09/02 08:15:06;;;;;;;;;;;;;;;16.80;58.83;102064.03;5062427;28;20430;-52
2022/09/02 08:17:32;;;;;;;;;;;;;;;16.82;58.80;102065.63;5061586;28;20388;-52
2022/09/02 08:19:57;;;;;;;;;;;;;;;16.88;58.69;102069.72;5061730;28;19948;-52
2022/09/02 08:22:23;;;;;;;;;;;;;;;16.92;58.67;102068.56;5060520;28;20019;-51
2022/09/02 08:24:48;;;;;;;;;;;;;;;16.97;58.57;102076.28;5063191;28;19955;-51
2022/09/02 08:27:13;;;;;;;;;;;;;;;17.00;58.54;102074.28;5060102;28;19924;-51
2022/09/02 08:29:38;;;;;;;;;;;;;;;17.04;58.39;102075.78;5062288;28;19928;-52
2022/09/02 08:32:04;;;;;;;;;;;;;;;17.09;58.25;102079.97;5061084;28;20011;-51
2022/09/02 08:34:30;;;;;;;;;;;;;;;17.12;58.34;102079.78;5062582;28;19934;-52
2022/09/02 08:36:56;;;;;;;;;;;;;;;17.15;58.22;102082.25;5048496;28;19925;-52
2022/09/02 08:39:21;;;;;;;;;;;;;;;17.18;58.10;102077.56;5061396;28;20368;-51
2022/09/02 08:41:55;;;;;;;;;;;;;;;17.23;58.28;102077.25;5058977;28;19928;-51
2022/09/02 08:44:23;;;;;;;;;;;;;;;17.27;58.16;102076.13;5063111;28;19994;-52
2022/09/02 08:46:52;;;;;;;;;;;;;;;17.31;58.06;102068.78;5060561;28;20386;-51
2022/09/02 08:49:24;;;;;;;;;;;;;;;17.36;57.79;102072.00;5061362;28;19924;-51
2022/09/02 08:51:56;;;;;;;;;;;;;;;17.41;57.83;102077.03;5063545;28;19917;-52
2022/09/02 08:54:30;;;;;;;;;;;;;;;17.47;57.80;102071.31;5061720;28;19928;-52
2022/09/02 08:56:57;;;;;;;;;;;;;;;17.52;57.42;102069.19;5063022;28;19917;-53
2022/09/02 08:59:25;;;;;;;;;;;;;;;17.56;57.50;102073.34;5063280;28;20366;-51
2022/09/02 09:01:50;;;;;;;;;;;;;;;17.61;57.52;102073.03;5060779;28;19920;-52
2022/09/02 09:04:16;;;;;;;;;;;;;;;17.63;57.42;102069.31;5063077;28;19995;-52
2022/09/02 09:06:41;;;;;;;;;;;;;;;17.67;57.15;102065.50;5056352;28;19924;-52
2022/09/02 09:09:13;;;;;;;;;;;;;;;17.71;57.14;102066.13;5061810;28;19924;-52
2022/09/02 09:11:44;;;;;;;;;;;;;;;17.73;57.27;102066.88;5063680;28;19924;-51
2022/09/02 09:14:48;;;;;;;;;;;;;;;17.77;57.09;102062.22;5058271;28;21578;-51
2022/09/02 09:17:19;;;;;;;;;;;;;;;17.81;56.90;102066.38;5022592;28;19929;-51
2022/09/02 09:19:49;;;;;;;;;;;;;;;17.84;56.66;102058.19;5019281;28;20408;-51
2022/09/02 09:22:17;;;;;;;;;;;;;;;17.88;56.31;102054.38;5042075;28;19928;-53
2022/09/02 09:24:44;;;;;;;;;;;;;;;17.89;56.67;102055.19;5058761;28;20039;-52
2022/09/02 09:27:12;;;;;;;;;;;;;;;17.91;56.08;102054.16;5062180;28;20003;-52
2022/09/02 09:29:37;;;;;;;;;;;;;;;17.96;56.42;102041.38;5057955;28;19917;-51
2022/09/02 09:32:04;;;;;;;;;;;;;;;18.00;56.45;102046.50;5076563;28;19978;-51
2022/09/02 09:34:49;;;;;;;;;;;;;;;18.04;56.05;102037.38;5042289;28;19932;-52
2022/09/02 09:37:26;;;;;;;;;;;;;;;18.08;55.98;102053.03;5063295;28;20294;-51
2022/09/02 09:39:52;;;;;;;;;;;;;;;18.10;55.80;102043.13;5061570;28;19963;-52
2022/09/02 09:42:28;;;;;;;;;;;;;;;18.13;55.73;102042.91;5059506;28;19921;-52
2022/09/02 09:44:54;;;;;;;;;;;;;;;18.16;55.79;102043.63;5058466;28;20292;-52
2022/09/02 09:47:24;;;;;;;;;;;;;;;18.19;55.66;102035.44;5056847;28;20436;-52
2022/09/02 09:50:08;;;;;;;;;;;;;;;18.21;55.39;102036.19;5060021;28;19920;-52
2022/09/02 09:52:33;;;;;;;;;;;;;;;18.27;55.39;102036.59;5058137;28;20011;-52
2022/09/02 09:55:12;;;;;;;;;;;;;;;18.35;55.24;102029.91;5058959;28;20031;-51
2022/09/02 09:57:39;;;;;;;;;;;;;;;18.47;54.70;102038.81;5062261;28;20025;-52
2022/09/02 10:00:24;;;;;;;;;;;;;;;18.54;54.65;102026.78;5059186;28;20452;-51
2022/09/02 10:02:52;;;;;;;;;;;;;;;18.64;54.43;102033.13;5061533;28;20391;-52
2022/09/02 10:05:17;;;;;;;;;;;;;;;18.71;54.10;102033.56;5061926;28;20380;-51
2022/09/02 10:07:51;;;;;;;;;;;;;;;18.81;54.23;102031.06;5064156;28;19969;-52
2022/09/02 10:10:18;;;;;;;;;;;;;;;18.88;53.91;102030.53;5063595;28;19925;-53
2022/09/02 10:12:44;;;;;;;;;;;;;;;18.95;53.89;102032.78;5065917;28;19928;-51
2022/09/02 10:15:12;;;;;;;;;;;;;;;18.98;53.53;102024.56;5063124;28;20221;-53
2022/09/02 10:17:40;;;;;;;;;;;;;;;18.99;53.63;102021.78;5059937;28;20373;-52
2022/09/02 10:20:08;;;;;;;;;;;;;;;19.02;53.54;102020.69;5064151;28;19946;-53
2022/09/02 10:23:09;;;;;;;;;;;;;;;19.06;53.61;102016.84;5063074;28;19930;-51
2022/09/02 10:25:46;;;;;;;;;;;;;;;19.12;53.14;102008.38;5016123;28;20003;-51
2022/09/02 10:28:44;;;;;;;;;;;;;;;19.19;53.25;102009.63;5051653;28;19916;-53
2022/09/02 10:31:16;;;;;;;;;;;;;;;19.24;52.96;102011.09;5015296;28;20364;-53
2022/09/02 10:33:44;;;;;;;;;;;;;;;19.31;52.77;102017.66;5061432;28;20384;-52
2022/09/02 10:36:30;;;;;;;;;;;;;;;19.37;52.47;102017.22;5061687;28;19928;-52
2022/09/02 10:39:01;;;;;;;;;;;;;;;19.44;52.49;102009.59;5062139;28;19921;-52
2022/09/02 10:41:46;;;;;;;;;;;;;;;19.48;52.13;102005.75;5062413;28;20388;-52
2022/09/02 10:44:26;;;;;;;;;;;;;;;19.56;52.07;102010.50;5062718;28;19921;-55
2022/09/02 10:46:58;;;;;;;;;;;;;;;19.61;51.66;102003.84;5058543;28;19920;-52
2022/09/02 10:49:39;;;;;;;;;;;;;;;19.64;51.87;102002.75;5060044;28;19939;-53
2022/09/02 10:52:23;;;;;;;;;;;;;;;19.64;51.60;102008.06;5063427;28;20123;-53
2022/09/02 10:55:18;;;;;;;;;;;;;;;19.66;51.49;102003.47;5060622;28;19970;-52
2022/09/02 10:57:43;;;;;;;;;;;;;;;19.67;51.36;101991.81;5048931;28;20003;-51
2022/09/02 11:00:17;;;;;;;;;;;;;;;19.70;50.89;101994.28;5060254;28;20015;-52
2022/09/02 11:03:04;;;;;;;;;;;;;;;19.75;51.05;101994.75;5040597;28;19916;-53
2022/09/02 11:05:48;;;;;;;;;;;;;;;19.83;50.57;101999.50;5058368;28;19924;-52
2022/09/02 11:08:26;;;;;;;;;;;;;;;19.91;50.38;102010.47;5061282;28;19920;-53
2022/09/02 11:10:51;;;;;;;;;;;;;;;20.00;50.36;102003.56;5059992;28;19951;-53
2022/09/02 11:13:20;;;;;;;;;;;;;;;20.08;49.95;101994.97;5058917;28;19972;-51
2022/09/02 11:15:56;;;;;;;;;;;;;;;20.13;49.63;101991.91;5055433;28;19985;-53
2022/09/02 11:18:27;;;;;;;;;;;;;;;20.15;49.61;101987.31;5059021;28;19921;-52
2022/09/02 11:21:02;;;;;;;;;;;;;;;20.18;49.75;101987.06;5047113;28;19961;-52
2022/09/02 11:23:46;;;;;;;;;;;;;;;20.20;49.81;101987.78;5060641;28;19924;-52
2022/09/02 11:26:26;;;;;;;;;;;;;;;20.23;49.42;101985.72;5059385;28;20058;-52
2022/09/02 11:29:00;;;;;;;;;;;;;;;20.27;49.54;101986.31;5056154;28;20558;-52
2022/09/02 11:31:38;;;;;;;;;;;;;;;20.31;49.25;101979.78;5062327;28;19959;-51
2022/09/02 11:34:03;;;;;;;;;;;;;;;20.34;49.29;101979.53;5055643;28;19932;-52
2022/09/02 11:36:28;;;;;;;;;;;;;;;20.38;48.60;101983.63;5055731;28;19917;-51
2022/09/02 11:39:06;;;;;;;;;;;;;;;20.43;48.76;101987.78;5057922;28;20378;-52
2022/09/02 11:41:50;;;;;;;;;;;;;;;20.47;48.66;101981.22;5057252;28;19920;-52
2022/09/02 11:44:24;;;;;;;;;;;;;;;20.49;48.66;101982.78;5061920;28;20357;-52
2022/09/02 11:47:02;;;;;;;;;;;;;;;20.52;48.39;101979.88;5061881;28;19917;-52
2022/09/02 11:49:54;;;;;;;;;;;;;;;20.58;48.59;101980.31;5057934;28;20000;-53
2022/09/02 11:52:22;;;;;;;;;;;;;;;20.63;48.09;101979.00;5062309;28;19907;-52
2022/09/02 11:55:00;;;;;;;;;;;;;;;20.68;47.95;101986.66;5066710;28;19920;-54
2022/09/02 11:57:26;;;;;;;;;;;;;;;20.70;47.93;101980.19;5059309;28;19956;-52
2022/09/02 11:59:51;;;;;;;;;;;;;;;20.77;48.08;101977.06;5056721;28;19972;-52
2022/09/02 12:02:35;;;;;;;;;;;;;;;20.82;48.02;101972.16;5050436;28;19945;-52
2022/09/02 12:05:19;;;;;;;;;;;;;;;20.91;47.74;101973.22;5060626;28;19920;-53
2022/09/02 12:07:48;;;;;;;;;;;;;;;20.97;47.52;101975.41;5054062;28;20328;-53
2022/09/02 12:10:34;;;;;;;;;;;;;;;21.04;47.43;101965.88;5057952;28;19920;-52
2022/09/02 12:12:59;;;;;;;;;;;;;;;21.13;47.30;101959.78;5043742;28;20013;-54
2022/09/02 12:15:25;;;;;;;;;;;;;;;21.21;47.24;101966.31;5056279;28;19928;-52
2022/09/02 12:17:50;;;;;;;;;;;;;;;21.25;46.95;101968.59;5044900;28;20002;-51
2022/09/02 12:20:34;;;;;;;;;;;;;;;21.27;46.93;101966.63;5060973;28;19920;-52
2022/09/02 12:22:59;;;;;;;;;;;;;;;21.30;46.89;101965.53;5057544;28;20229;-51
2022/09/02 12:25:25;;;;;;;;;;;;;;;21.30;46.67;101955.69;5057710;28;20518;-52
2022/09/02 12:28:08;;;;;;;;;;;;;;;21.32;46.93;101948.38;5058125;28;20336;-52
2022/09/02 12:30:52;;;;;;;;;;;;;;;21.36;46.56;101950.78;5062957;28;19920;-53
2022/09/02 12:33:28;;;;;;;;;;;;;;;21.42;46.49;101944.91;5061379;28;19963;-51
2022/09/02 12:35:53;;;;;;;;;;;;;;;21.44;46.12;101937.59;5058567;28;19932;-51
2022/09/02 12:38:24;;;;;;;;;;;;;;;21.47;46.21;101935.53;5042576;28;19935;-52
2022/09/02 12:41:04;;;;;;;;;;;;;;;21.54;46.10;101934.97;5058161;28;19927;-53
2022/09/02 12:43:48;;;;;;;;;;;;;;;21.58;45.86;101931.06;5061431;28;19920;-52
2022/09/02 12:46:27;;;;;;;;;;;;;;;21.60;45.79;101934.50;5056927;28;19963;-52
2022/09/02 12:49:02;;;;;;;;;;;;;;;21.60;45.66;101929.97;5052650;28;19916;-52